sensor_id;sensor_type;location;lat;lon;timestamp;P1;durP1;ratioP1;P2;durP2;ratioP2
26038;SDS011;13815;52.374;4.882;2023-08-17T00:01:40;10.02;;;0.65;;
26038;SDS011;13815;52.374;4.882;2023-08-17T00:04:06;9.93;;;0.55;;
26038;SDS011;13815;52.374;4.882;2023-08-17T00:06:32;3.65;;;0.28;;
26038;SDS011;13815;52.374;4.882;2023-08-17T00:08:57;15.05;;;0.90;;
26038;SDS011;13815;52.374;4.882;2023-08-17T00:11:23;12.63;;;0.88;;
26038;SDS011;13815;52.374;4.882;2023-08-17T00:13:48;17.50;;;1.23;;
26038;SDS011;13815;52.374;4.882;2023-08-17T00:16:14;2.88;;;0.20;;
26038;SDS011;13815;52.374;4.882;2023-08-17T00:18:40;10.70;;;0.75;;
26038;SDS011;13815;52.374;4.882;2023-08-17T00:21:13;6.93;;;0.45;;
26038;SDS011;13815;52.374;4.882;2023-08-17T00:23:39;21.95;;;1.45;;
26038;SDS011;13815;52.374;4.882;2023-08-17T00:26:05;34.20;;;2.22;;
26038;SDS011;13815;52.374;4.882;2023-08-17T00:28:30;4.10;;;0.30;;
26038;SDS011;13815;52.374;4.882;2023-08-17T00:30:56;22.20;;;1.38;;
26038;SDS011;13815;52.374;4.882;2023-08-17T00:33:21;2.15;;;0.20;;
26038;SDS011;13815;52.374;4.882;2023-08-17T00:35:47;4.95;;;0.32;;
26038;SDS011;13815;52.374;4.882;2023-08-17T00:38:12;21.48;;;1.25;;
26038;SDS011;13815;52.374;4.882;2023-08-17T00:40:38;10.57;;;0.68;;
26038;SDS011;13815;52.374;4.882;2023-08-17T00:43:07;7.57;;;0.55;;
26038;SDS011;13815;52.374;4.882;2023-08-17T00:45:32;30.77;;;1.83;;
26038;SDS011;13815;52.374;4.882;2023-08-17T00:47:58;1.70;;;0.15;;
26038;SDS011;13815;52.374;4.882;2023-08-17T00:50:24;8.95;;;0.63;;
26038;SDS011;13815;52.374;4.882;2023-08-17T00:52:51;29.02;;;1.98;;
26038;SDS011;13815;52.374;4.882;2023-08-17T00:55:17;9.02;;;0.47;;
26038;SDS011;13815;52.374;4.882;2023-08-17T00:57:42;8.52;;;0.57;;
26038;SDS011;13815;52.374;4.882;2023-08-17T01:00:11;8.20;;;0.55;;
26038;SDS011;13815;52.374;4.882;2023-08-17T01:02:38;5.22;;;0.35;;
26038;SDS011;13815;52.374;4.882;2023-08-17T01:05:07;13.73;;;0.73;;
26038;SDS011;13815;52.374;4.882;2023-08-17T01:07:32;17.40;;;1.17;;
26038;SDS011;13815;52.374;4.882;2023-08-17T01:10:02;11.15;;;0.75;;
26038;SDS011;13815;52.374;4.882;2023-08-17T01:12:32;3.28;;;0.20;;
26038;SDS011;13815;52.374;4.882;2023-08-17T01:20:56;3.05;;;0.20;;
26038;SDS011;13815;52.374;4.882;2023-08-17T01:23:22;10.13;;;0.65;;
26038;SDS011;13815;52.374;4.882;2023-08-17T01:25:50;15.00;;;0.95;;
26038;SDS011;13815;52.374;4.882;2023-08-17T01:28:16;5.78;;;0.45;;
26038;SDS011;13815;52.374;4.882;2023-08-17T01:33:29;10.70;;;0.73;;
26038;SDS011;13815;52.374;4.882;2023-08-17T01:36:01;3.58;;;0.20;;
26038;SDS011;13815;52.374;4.882;2023-08-17T01:38:30;4.88;;;0.30;;
26038;SDS011;13815;52.374;4.882;2023-08-17T01:41:00;5.45;;;0.40;;
26038;SDS011;13815;52.374;4.882;2023-08-17T01:43:26;29.25;;;1.92;;
26038;SDS011;13815;52.374;4.882;2023-08-17T01:45:52;6.20;;;0.40;;
26038;SDS011;13815;52.374;4.882;2023-08-17T01:48:17;13.85;;;0.75;;
26038;SDS011;13815;52.374;4.882;2023-08-17T01:50:43;15.65;;;0.77;;
26038;SDS011;13815;52.374;4.882;2023-08-17T01:53:08;2.15;;;0.15;;
26038;SDS011;13815;52.374;4.882;2023-08-17T01:55:35;10.13;;;0.68;;
26038;SDS011;13815;52.374;4.882;2023-08-17T01:58:00;17.02;;;0.90;;
26038;SDS011;13815;52.374;4.882;2023-08-17T02:00:26;4.47;;;0.30;;
26038;SDS011;13815;52.374;4.882;2023-08-17T02:02:51;7.00;;;0.50;;
26038;SDS011;13815;52.374;4.882;2023-08-17T02:05:17;2.38;;;0.20;;
26038;SDS011;13815;52.374;4.882;2023-08-17T02:07:42;17.58;;;1.00;;
26038;SDS011;13815;52.374;4.882;2023-08-17T02:10:08;16.52;;;0.95;;
26038;SDS011;13815;52.374;4.882;2023-08-17T02:12:33;10.38;;;0.73;;
26038;SDS011;13815;52.374;4.882;2023-08-17T02:14:59;2.28;;;0.15;;
26038;SDS011;13815;52.374;4.882;2023-08-17T02:17:24;11.20;;;0.60;;
26038;SDS011;13815;52.374;4.882;2023-08-17T02:19:50;7.05;;;0.45;;
26038;SDS011;13815;52.374;4.882;2023-08-17T02:22:15;2.63;;;0.15;;
26038;SDS011;13815;52.374;4.882;2023-08-17T02:24:41;24.95;;;1.45;;
26038;SDS011;13815;52.374;4.882;2023-08-17T02:27:07;5.13;;;0.32;;
26038;SDS011;13815;52.374;4.882;2023-08-17T02:29:33;3.03;;;0.20;;
26038;SDS011;13815;52.374;4.882;2023-08-17T02:31:59;8.38;;;0.60;;
26038;SDS011;13815;52.374;4.882;2023-08-17T02:34:24;3.20;;;0.22;;
26038;SDS011;13815;52.374;4.882;2023-08-17T02:36:50;13.13;;;0.88;;
26038;SDS011;13815;52.374;4.882;2023-08-17T02:39:15;27.30;;;1.73;;
26038;SDS011;13815;52.374;4.882;2023-08-17T02:41:41;3.05;;;0.20;;
26038;SDS011;13815;52.374;4.882;2023-08-17T02:44:09;10.25;;;0.68;;
26038;SDS011;13815;52.374;4.882;2023-08-17T02:46:43;3.45;;;0.20;;
26038;SDS011;13815;52.374;4.882;2023-08-17T02:49:08;3.55;;;0.22;;
26038;SDS011;13815;52.374;4.882;2023-08-17T02:51:34;26.30;;;1.48;;
26038;SDS011;13815;52.374;4.882;2023-08-17T02:53:59;8.40;;;0.52;;
26038;SDS011;13815;52.374;4.882;2023-08-17T02:56:25;1.55;;;0.05;;
26038;SDS011;13815;52.374;4.882;2023-08-17T02:58:56;16.30;;;0.93;;
26038;SDS011;13815;52.374;4.882;2023-08-17T03:01:22;14.57;;;0.77;;
26038;SDS011;13815;52.374;4.882;2023-08-17T03:03:47;3.58;;;0.20;;
26038;SDS011;13815;52.374;4.882;2023-08-17T03:06:13;6.20;;;0.45;;
26038;SDS011;13815;52.374;4.882;2023-08-17T03:08:38;6.55;;;0.45;;
26038;SDS011;13815;52.374;4.882;2023-08-17T03:11:06;17.48;;;1.15;;
26038;SDS011;13815;52.374;4.882;2023-08-17T03:13:32;5.30;;;0.32;;
26038;SDS011;13815;52.374;4.882;2023-08-17T03:15:58;1.08;;;0.10;;
26038;SDS011;13815;52.374;4.882;2023-08-17T03:18:23;11.63;;;0.68;;
26038;SDS011;13815;52.374;4.882;2023-08-17T03:20:48;3.85;;;0.30;;
26038;SDS011;13815;52.374;4.882;2023-08-17T03:23:17;7.47;;;0.50;;
26038;SDS011;13815;52.374;4.882;2023-08-17T03:25:46;15.60;;;0.90;;
26038;SDS011;13815;52.374;4.882;2023-08-17T03:28:14;1.98;;;0.17;;
26038;SDS011;13815;52.374;4.882;2023-08-17T03:30:39;10.23;;;0.55;;
26038;SDS011;13815;52.374;4.882;2023-08-17T03:33:05;20.65;;;1.15;;
26038;SDS011;13815;52.374;4.882;2023-08-17T03:35:30;4.65;;;0.38;;
26038;SDS011;13815;52.374;4.882;2023-08-17T03:37:56;5.65;;;0.35;;
26038;SDS011;13815;52.374;4.882;2023-08-17T03:40:21;19.00;;;1.10;;
26038;SDS011;13815;52.374;4.882;2023-08-17T03:42:46;2.50;;;0.28;;
26038;SDS011;13815;52.374;4.882;2023-08-17T03:45:12;12.38;;;0.85;;
26038;SDS011;13815;52.374;4.882;2023-08-17T03:47:37;12.15;;;0.80;;
26038;SDS011;13815;52.374;4.882;2023-08-17T03:50:03;43.10;;;2.97;;
26038;SDS011;13815;52.374;4.882;2023-08-17T03:52:42;16.63;;;1.05;;
26038;SDS011;13815;52.374;4.882;2023-08-17T03:55:07;6.82;;;0.45;;
26038;SDS011;13815;52.374;4.882;2023-08-17T03:57:33;4.10;;;0.30;;
26038;SDS011;13815;52.374;4.882;2023-08-17T03:59:58;31.77;;;2.08;;
26038;SDS011;13815;52.374;4.882;2023-08-17T04:02:24;8.27;;;0.52;;
26038;SDS011;13815;52.374;4.882;2023-08-17T04:04:49;3.53;;;0.28;;
26038;SDS011;13815;52.374;4.882;2023-08-17T04:07:20;4.35;;;0.30;;
26038;SDS011;13815;52.374;4.882;2023-08-17T04:09:47;21.95;;;1.50;;
26038;SDS011;13815;52.374;4.882;2023-08-17T04:12:13;13.15;;;0.65;;
26038;SDS011;13815;52.374;4.882;2023-08-17T04:14:38;7.47;;;0.57;;
26038;SDS011;13815;52.374;4.882;2023-08-17T04:17:03;8.93;;;0.65;;
26038;SDS011;13815;52.374;4.882;2023-08-17T04:19:32;20.35;;;1.17;;
26038;SDS011;13815;52.374;4.882;2023-08-17T04:21:57;9.02;;;0.65;;
26038;SDS011;13815;52.374;4.882;2023-08-17T04:24:23;5.40;;;0.40;;
26038;SDS011;13815;52.374;4.882;2023-08-17T04:26:49;3.65;;;0.30;;
26038;SDS011;13815;52.374;4.882;2023-08-17T04:29:14;21.58;;;1.38;;
26038;SDS011;13815;52.374;4.882;2023-08-17T04:31:40;12.50;;;0.95;;
26038;SDS011;13815;52.374;4.882;2023-08-17T04:34:05;0.70;;;0.00;;
26038;SDS011;13815;52.374;4.882;2023-08-17T04:36:31;3.83;;;0.30;;
26038;SDS011;13815;52.374;4.882;2023-08-17T04:38:56;3.90;;;0.28;;
26038;SDS011;13815;52.374;4.882;2023-08-17T04:41:21;0.95;;;0.03;;
26038;SDS011;13815;52.374;4.882;2023-08-17T04:43:50;1.35;;;0.10;;
26038;SDS011;13815;52.374;4.882;2023-08-17T04:46:15;21.15;;;1.52;;
26038;SDS011;13815;52.374;4.882;2023-08-17T04:48:41;8.77;;;0.63;;
26038;SDS011;13815;52.374;4.882;2023-08-17T04:51:06;4.63;;;0.38;;
26038;SDS011;13815;52.374;4.882;2023-08-17T04:53:31;21.13;;;1.52;;
26038;SDS011;13815;52.374;4.882;2023-08-17T04:55:58;11.35;;;0.88;;
26038;SDS011;13815;52.374;4.882;2023-08-17T04:58:23;4.38;;;0.32;;
26038;SDS011;13815;52.374;4.882;2023-08-17T05:00:49;19.90;;;1.27;;
26038;SDS011;13815;52.374;4.882;2023-08-17T05:03:14;6.57;;;0.52;;
26038;SDS011;13815;52.374;4.882;2023-08-17T05:05:39;8.77;;;0.65;;
26038;SDS011;13815;52.374;4.882;2023-08-17T05:08:05;20.27;;;1.38;;
26038;SDS011;13815;52.374;4.882;2023-08-17T05:10:30;15.23;;;1.20;;
26038;SDS011;13815;52.374;4.882;2023-08-17T05:12:56;7.10;;;0.55;;
26038;SDS011;13815;52.374;4.882;2023-08-17T05:15:21;21.30;;;1.45;;
26038;SDS011;13815;52.374;4.882;2023-08-17T05:17:47;14.75;;;1.17;;
26038;SDS011;13815;52.374;4.882;2023-08-17T05:20:12;4.10;;;0.30;;
26038;SDS011;13815;52.374;4.882;2023-08-17T05:22:38;18.85;;;1.15;;
26038;SDS011;13815;52.374;4.882;2023-08-17T05:25:03;11.77;;;0.90;;
26038;SDS011;13815;52.374;4.882;2023-08-17T05:27:50;10.63;;;0.95;;
26038;SDS011;13815;52.374;4.882;2023-08-17T05:30:16;5.47;;;0.47;;
26038;SDS011;13815;52.374;4.882;2023-08-17T05:32:44;4.05;;;0.30;;
26038;SDS011;13815;52.374;4.882;2023-08-17T05:35:12;7.30;;;0.60;;
26038;SDS011;13815;52.374;4.882;2023-08-17T05:37:37;5.63;;;0.47;;
26038;SDS011;13815;52.374;4.882;2023-08-17T05:40:03;9.52;;;0.77;;
26038;SDS011;13815;52.374;4.882;2023-08-17T05:42:30;16.35;;;1.20;;
26038;SDS011;13815;52.374;4.882;2023-08-17T05:44:56;5.57;;;0.45;;
26038;SDS011;13815;52.374;4.882;2023-08-17T05:47:21;28.05;;;1.85;;
26038;SDS011;13815;52.374;4.882;2023-08-17T05:49:47;26.65;;;2.00;;
26038;SDS011;13815;52.374;4.882;2023-08-17T05:52:13;1.08;;;0.10;;
26038;SDS011;13815;52.374;4.882;2023-08-17T05:54:38;19.15;;;1.15;;
26038;SDS011;13815;52.374;4.882;2023-08-17T05:57:04;16.58;;;1.35;;
26038;SDS011;13815;52.374;4.882;2023-08-17T05:59:30;3.38;;;0.30;;
26038;SDS011;13815;52.374;4.882;2023-08-17T06:01:55;33.08;;;1.92;;
26038;SDS011;13815;52.374;4.882;2023-08-17T06:04:21;1.15;;;0.08;;
26038;SDS011;13815;52.374;4.882;2023-08-17T06:06:46;12.88;;;1.05;;
26038;SDS011;13815;52.374;4.882;2023-08-17T06:09:12;4.30;;;0.32;;
26038;SDS011;13815;52.374;4.882;2023-08-17T06:11:40;10.48;;;0.80;;
26038;SDS011;13815;52.374;4.882;2023-08-17T06:14:06;11.75;;;0.73;;
26038;SDS011;13815;52.374;4.882;2023-08-17T06:16:32;6.38;;;0.45;;
26038;SDS011;13815;52.374;4.882;2023-08-17T06:19:15;22.70;;;1.33;;
26038;SDS011;13815;52.374;4.882;2023-08-17T06:21:41;3.63;;;0.28;;
26038;SDS011;13815;52.374;4.882;2023-08-17T06:24:06;12.25;;;0.95;;
26038;SDS011;13815;52.374;4.882;2023-08-17T06:26:31;18.80;;;1.17;;
26038;SDS011;13815;52.374;4.882;2023-08-17T06:28:57;8.27;;;0.63;;
26038;SDS011;13815;52.374;4.882;2023-08-17T06:31:22;19.17;;;1.20;;
26038;SDS011;13815;52.374;4.882;2023-08-17T06:33:52;19.38;;;1.25;;
26038;SDS011;13815;52.374;4.882;2023-08-17T06:36:18;4.60;;;0.45;;
26038;SDS011;13815;52.374;4.882;2023-08-17T06:38:46;31.67;;;2.30;;
26038;SDS011;13815;52.374;4.882;2023-08-17T06:41:12;14.80;;;0.85;;
26038;SDS011;13815;52.374;4.882;2023-08-17T06:43:38;6.03;;;0.47;;
26038;SDS011;13815;52.374;4.882;2023-08-17T06:46:12;24.42;;;1.73;;
26038;SDS011;13815;52.374;4.882;2023-08-17T06:48:58;6.25;;;0.47;;
26038;SDS011;13815;52.374;4.882;2023-08-17T06:51:23;16.48;;;1.23;;
26038;SDS011;13815;52.374;4.882;2023-08-17T06:53:49;12.98;;;1.10;;
26038;SDS011;13815;52.374;4.882;2023-08-17T06:56:15;4.70;;;0.38;;
26038;SDS011;13815;52.374;4.882;2023-08-17T06:58:40;8.75;;;0.65;;
26038;SDS011;13815;52.374;4.882;2023-08-17T07:01:05;6.13;;;0.50;;
26038;SDS011;13815;52.374;4.882;2023-08-17T07:03:31;7.03;;;0.52;;
26038;SDS011;13815;52.374;4.882;2023-08-17T07:05:57;25.30;;;1.65;;
26038;SDS011;13815;52.374;4.882;2023-08-17T07:08:22;5.20;;;0.40;;
26038;SDS011;13815;52.374;4.882;2023-08-17T07:10:48;18.50;;;1.42;;
26038;SDS011;13815;52.374;4.882;2023-08-17T07:13:13;11.70;;;0.80;;
26038;SDS011;13815;52.374;4.882;2023-08-17T07:15:38;18.73;;;1.35;;
26038;SDS011;13815;52.374;4.882;2023-08-17T07:18:04;9.27;;;0.73;;
26038;SDS011;13815;52.374;4.882;2023-08-17T07:20:29;9.73;;;0.80;;
26038;SDS011;13815;52.374;4.882;2023-08-17T07:22:55;15.07;;;1.17;;
26038;SDS011;13815;52.374;4.882;2023-08-17T07:25:20;6.50;;;0.47;;
26038;SDS011;13815;52.374;4.882;2023-08-17T07:27:46;5.18;;;0.43;;
26038;SDS011;13815;52.374;4.882;2023-08-17T07:30:11;12.55;;;1.00;;
26038;SDS011;13815;52.374;4.882;2023-08-17T07:32:37;14.25;;;0.80;;
26038;SDS011;13815;52.374;4.882;2023-08-17T07:35:02;32.97;;;2.40;;
26038;SDS011;13815;52.374;4.882;2023-08-17T07:37:28;29.05;;;1.83;;
26038;SDS011;13815;52.374;4.882;2023-08-17T07:39:58;22.65;;;1.70;;
26038;SDS011;13815;52.374;4.882;2023-08-17T07:42:24;3.95;;;0.30;;
26038;SDS011;13815;52.374;4.882;2023-08-17T07:44:49;10.32;;;0.80;;
26038;SDS011;13815;52.374;4.882;2023-08-17T07:47:14;18.60;;;1.38;;
26038;SDS011;13815;52.374;4.882;2023-08-17T07:49:40;18.63;;;1.52;;
26038;SDS011;13815;52.374;4.882;2023-08-17T07:52:05;10.77;;;0.98;;
26038;SDS011;13815;52.374;4.882;2023-08-17T07:54:34;1.65;;;0.20;;
26038;SDS011;13815;52.374;4.882;2023-08-17T07:56:59;2.63;;;0.20;;
26038;SDS011;13815;52.374;4.882;2023-08-17T07:59:25;16.45;;;1.23;;
26038;SDS011;13815;52.374;4.882;2023-08-17T08:01:51;20.02;;;1.60;;
26038;SDS011;13815;52.374;4.882;2023-08-17T08:04:16;8.52;;;0.73;;
26038;SDS011;13815;52.374;4.882;2023-08-17T08:06:42;46.40;;;3.20;;
26038;SDS011;13815;52.374;4.882;2023-08-17T08:09:07;19.13;;;1.45;;
26038;SDS011;13815;52.374;4.882;2023-08-17T08:11:33;11.27;;;0.93;;
26038;SDS011;13815;52.374;4.882;2023-08-17T08:13:58;17.45;;;1.13;;
26038;SDS011;13815;52.374;4.882;2023-08-17T08:16:24;42.50;;;2.90;;
26038;SDS011;13815;52.374;4.882;2023-08-17T08:18:49;22.10;;;1.55;;
26038;SDS011;13815;52.374;4.882;2023-08-17T08:21:14;20.00;;;1.23;;
26038;SDS011;13815;52.374;4.882;2023-08-17T08:23:40;28.92;;;1.73;;
26038;SDS011;13815;52.374;4.882;2023-08-17T08:26:06;17.73;;;1.38;;
26038;SDS011;13815;52.374;4.882;2023-08-17T08:28:31;20.75;;;1.50;;
26038;SDS011;13815;52.374;4.882;2023-08-17T08:31:03;11.70;;;0.93;;
26038;SDS011;13815;52.374;4.882;2023-08-17T08:33:29;12.02;;;1.02;;
26038;SDS011;13815;52.374;4.882;2023-08-17T08:35:54;4.03;;;0.38;;
26038;SDS011;13815;52.374;4.882;2023-08-17T08:38:20;15.23;;;1.40;;
26038;SDS011;13815;52.374;4.882;2023-08-17T08:40:48;15.18;;;0.93;;
26038;SDS011;13815;52.374;4.882;2023-08-17T08:43:14;15.65;;;1.30;;
26038;SDS011;13815;52.374;4.882;2023-08-17T08:45:43;4.68;;;0.52;;
26038;SDS011;13815;52.374;4.882;2023-08-17T08:48:15;14.88;;;1.08;;
26038;SDS011;13815;52.374;4.882;2023-08-17T08:50:41;19.45;;;1.55;;
26038;SDS011;13815;52.374;4.882;2023-08-17T08:53:15;18.35;;;1.58;;
26038;SDS011;13815;52.374;4.882;2023-08-17T08:55:49;16.52;;;1.48;;
26038;SDS011;13815;52.374;4.882;2023-08-17T08:58:20;24.67;;;1.88;;
26038;SDS011;13815;52.374;4.882;2023-08-17T09:00:46;9.93;;;0.90;;
26038;SDS011;13815;52.374;4.882;2023-08-17T09:03:15;17.67;;;1.40;;
26038;SDS011;13815;52.374;4.882;2023-08-17T09:05:44;48.33;;;3.47;;
26038;SDS011;13815;52.374;4.882;2023-08-17T09:08:12;8.40;;;0.77;;
26038;SDS011;13815;52.374;4.882;2023-08-17T09:10:38;7.65;;;0.77;;
26038;SDS011;13815;52.374;4.882;2023-08-17T09:13:04;25.27;;;1.90;;
26038;SDS011;13815;52.374;4.882;2023-08-17T09:15:45;8.13;;;0.85;;
26038;SDS011;13815;52.374;4.882;2023-08-17T09:18:10;43.15;;;2.95;;
26038;SDS011;13815;52.374;4.882;2023-08-17T09:20:37;39.08;;;3.10;;
26038;SDS011;13815;52.374;4.882;2023-08-17T09:23:13;13.02;;;1.13;;
26038;SDS011;13815;52.374;4.882;2023-08-17T09:25:45;20.83;;;1.92;;
26038;SDS011;13815;52.374;4.882;2023-08-17T09:28:11;42.97;;;3.35;;
26038;SDS011;13815;52.374;4.882;2023-08-17T09:30:49;22.63;;;2.42;;
26038;SDS011;13815;52.374;4.882;2023-08-17T09:33:23;28.15;;;2.78;;
26038;SDS011;13815;52.374;4.882;2023-08-17T09:35:51;47.40;;;3.85;;
26038;SDS011;13815;52.374;4.882;2023-08-17T09:38:17;26.38;;;2.90;;
26038;SDS011;13815;52.374;4.882;2023-08-17T09:40:43;37.92;;;3.55;;
26038;SDS011;13815;52.374;4.882;2023-08-17T09:43:09;20.17;;;1.77;;
26038;SDS011;13815;52.374;4.882;2023-08-17T09:46:12;51.53;;;4.10;;
26038;SDS011;13815;52.374;4.882;2023-08-17T09:48:37;22.15;;;2.80;;
26038;SDS011;13815;52.374;4.882;2023-08-17T09:51:03;16.15;;;2.03;;
26038;SDS011;13815;52.374;4.882;2023-08-17T09:53:33;52.03;;;4.22;;
26038;SDS011;13815;52.374;4.882;2023-08-17T09:56:02;25.25;;;2.15;;
26038;SDS011;13815;52.374;4.882;2023-08-17T09:58:27;11.25;;;2.50;;
26038;SDS011;13815;52.374;4.882;2023-08-17T10:00:52;14.75;;;3.15;;
26038;SDS011;13815;52.374;4.882;2023-08-17T10:03:19;18.33;;;3.25;;
26038;SDS011;13815;52.374;4.882;2023-08-17T10:05:48;27.17;;;3.80;;
26038;SDS011;13815;52.374;4.882;2023-08-17T10:08:20;12.18;;;2.70;;
26038;SDS011;13815;52.374;4.882;2023-08-17T10:10:46;17.98;;;3.35;;
26038;SDS011;13815;52.374;4.882;2023-08-17T10:13:16;39.58;;;4.70;;
26038;SDS011;13815;52.374;4.882;2023-08-17T10:15:53;22.35;;;3.72;;
26038;SDS011;13815;52.374;4.882;2023-08-17T10:18:33;63.65;;;6.78;;
26038;SDS011;13815;52.374;4.882;2023-08-17T10:21:07;22.55;;;4.75;;
26038;SDS011;13815;52.374;4.882;2023-08-17T10:23:38;17.45;;;5.53;;
26038;SDS011;13815;52.374;4.882;2023-08-17T10:26:03;21.98;;;5.43;;
26038;SDS011;13815;52.374;4.882;2023-08-17T10:28:30;25.67;;;6.18;;
26038;SDS011;13815;52.374;4.882;2023-08-17T10:30:57;60.22;;;10.23;;
26038;SDS011;13815;52.374;4.882;2023-08-17T10:33:23;17.17;;;7.68;;
26038;SDS011;13815;52.374;4.882;2023-08-17T10:35:50;28.65;;;8.95;;
26038;SDS011;13815;52.374;4.882;2023-08-17T10:38:15;24.15;;;9.45;;
26038;SDS011;13815;52.374;4.882;2023-08-17T10:40:42;39.03;;;10.25;;
26038;SDS011;13815;52.374;4.882;2023-08-17T10:43:08;35.25;;;9.60;;
26038;SDS011;13815;52.374;4.882;2023-08-17T10:45:34;18.63;;;9.85;;
26038;SDS011;13815;52.374;4.882;2023-08-17T10:50:32;30.65;;;13.13;;
26038;SDS011;13815;52.374;4.882;2023-08-17T10:52:58;29.15;;;13.07;;
26038;SDS011;13815;52.374;4.882;2023-08-17T10:55:41;36.38;;;13.98;;
26038;SDS011;13815;52.374;4.882;2023-08-17T10:58:07;17.48;;;11.55;;
26038;SDS011;13815;52.374;4.882;2023-08-17T11:00:34;28.50;;;12.02;;
26038;SDS011;13815;52.374;4.882;2023-08-17T11:05:46;35.90;;;14.85;;
26038;SDS011;13815;52.374;4.882;2023-08-17T11:13:37;16.80;;;12.50;;
26038;SDS011;13815;52.374;4.882;2023-08-17T11:16:04;17.27;;;14.80;;
26038;SDS011;13815;52.374;4.882;2023-08-17T11:18:30;47.15;;;18.00;;
26038;SDS011;13815;52.374;4.882;2023-08-17T11:20:57;27.20;;;17.13;;
26038;SDS011;13815;52.374;4.882;2023-08-17T11:23:22;39.88;;;17.67;;
26038;SDS011;13815;52.374;4.882;2023-08-17T11:25:48;43.05;;;18.80;;
26038;SDS011;13815;52.374;4.882;2023-08-17T11:28:16;32.47;;;18.25;;
26038;SDS011;13815;52.374;4.882;2023-08-17T11:30:42;40.35;;;18.15;;
26038;SDS011;13815;52.374;4.882;2023-08-17T11:33:09;54.83;;;19.05;;
26038;SDS011;13815;52.374;4.882;2023-08-17T11:35:38;55.17;;;19.20;;
26038;SDS011;13815;52.374;4.882;2023-08-17T11:38:04;36.90;;;17.75;;
26038;SDS011;13815;52.374;4.882;2023-08-17T11:40:31;28.35;;;17.13;;
26038;SDS011;13815;52.374;4.882;2023-08-17T11:42:56;42.35;;;18.45;;
26038;SDS011;13815;52.374;4.882;2023-08-17T11:45:22;69.35;;;20.35;;
26038;SDS011;13815;52.374;4.882;2023-08-17T11:47:48;40.75;;;18.70;;
26038;SDS011;13815;52.374;4.882;2023-08-17T11:50:14;51.17;;;18.15;;
26038;SDS011;13815;52.374;4.882;2023-08-17T11:52:39;27.42;;;17.33;;
26038;SDS011;13815;52.374;4.882;2023-08-17T11:55:06;30.42;;;16.90;;
26038;SDS011;13815;52.374;4.882;2023-08-17T11:57:33;49.75;;;18.80;;
26038;SDS011;13815;52.374;4.882;2023-08-17T11:59:59;45.78;;;18.77;;
26038;SDS011;13815;52.374;4.882;2023-08-17T12:02:28;60.92;;;19.38;;
26038;SDS011;13815;52.374;4.882;2023-08-17T12:04:54;69.07;;;19.48;;
26038;SDS011;13815;52.374;4.882;2023-08-17T12:07:21;33.90;;;18.20;;
26038;SDS011;13815;52.374;4.882;2023-08-17T12:09:49;52.40;;;19.83;;
26038;SDS011;13815;52.374;4.882;2023-08-17T12:12:18;37.17;;;20.58;;
26038;SDS011;13815;52.374;4.882;2023-08-17T12:14:44;46.28;;;20.85;;
26038;SDS011;13815;52.374;4.882;2023-08-17T12:17:15;57.95;;;19.25;;
26038;SDS011;13815;52.374;4.882;2023-08-17T12:19:41;41.55;;;18.20;;
26038;SDS011;13815;52.374;4.882;2023-08-17T12:22:07;93.40;;;21.48;;
26038;SDS011;13815;52.374;4.882;2023-08-17T12:24:32;61.40;;;19.05;;
26038;SDS011;13815;52.374;4.882;2023-08-17T12:26:59;45.47;;;18.40;;
26038;SDS011;13815;52.374;4.882;2023-08-17T12:29:27;42.85;;;17.65;;
26038;SDS011;13815;52.374;4.882;2023-08-17T12:31:52;43.63;;;18.60;;
26038;SDS011;13815;52.374;4.882;2023-08-17T12:34:18;35.72;;;18.25;;
26038;SDS011;13815;52.374;4.882;2023-08-17T12:36:43;34.40;;;18.23;;
26038;SDS011;13815;52.374;4.882;2023-08-17T12:39:09;34.63;;;16.75;;
26038;SDS011;13815;52.374;4.882;2023-08-17T12:41:37;32.80;;;17.75;;
26038;SDS011;13815;52.374;4.882;2023-08-17T12:44:02;59.50;;;19.13;;
26038;SDS011;13815;52.374;4.882;2023-08-17T12:46:28;32.13;;;16.80;;
26038;SDS011;13815;52.374;4.882;2023-08-17T12:48:57;33.05;;;16.17;;
26038;SDS011;13815;52.374;4.882;2023-08-17T12:51:23;18.35;;;14.73;;
26038;SDS011;13815;52.374;4.882;2023-08-17T12:53:48;17.92;;;14.20;;
26038;SDS011;13815;52.374;4.882;2023-08-17T12:56:14;22.70;;;15.15;;
26038;SDS011;13815;52.374;4.882;2023-08-17T12:58:39;57.88;;;18.27;;
26038;SDS011;13815;52.374;4.882;2023-08-17T13:01:05;59.17;;;17.27;;
26038;SDS011;13815;52.374;4.882;2023-08-17T13:03:30;32.38;;;14.85;;
26038;SDS011;13815;52.374;4.882;2023-08-17T13:05:56;29.17;;;14.25;;
26038;SDS011;13815;52.374;4.882;2023-08-17T13:08:21;17.77;;;12.75;;
26038;SDS011;13815;52.374;4.882;2023-08-17T13:10:47;27.27;;;13.00;;
26038;SDS011;13815;52.374;4.882;2023-08-17T13:13:12;20.30;;;12.40;;
26038;SDS011;13815;52.374;4.882;2023-08-17T13:15:37;38.33;;;13.57;;
26038;SDS011;13815;52.374;4.882;2023-08-17T13:18:03;40.88;;;13.77;;
26038;SDS011;13815;52.374;4.882;2023-08-17T13:20:29;19.58;;;11.70;;
26038;SDS011;13815;52.374;4.882;2023-08-17T13:22:54;26.30;;;12.40;;
26038;SDS011;13815;52.374;4.882;2023-08-17T13:25:19;30.08;;;13.20;;
26038;SDS011;13815;52.374;4.882;2023-08-17T13:27:45;34.13;;;14.55;;
26038;SDS011;13815;52.374;4.882;2023-08-17T13:30:11;22.33;;;13.77;;
26038;SDS011;13815;52.374;4.882;2023-08-17T13:32:36;31.77;;;13.88;;
26038;SDS011;13815;52.374;4.882;2023-08-17T13:35:02;26.17;;;13.35;;
26038;SDS011;13815;52.374;4.882;2023-08-17T13:37:28;18.63;;;11.65;;
26038;SDS011;13815;52.374;4.882;2023-08-17T13:39:53;23.70;;;11.60;;
26038;SDS011;13815;52.374;4.882;2023-08-17T13:42:19;49.40;;;13.27;;
26038;SDS011;13815;52.374;4.882;2023-08-17T13:44:44;24.63;;;11.32;;
26038;SDS011;13815;52.374;4.882;2023-08-17T13:47:10;53.72;;;12.90;;
26038;SDS011;13815;52.374;4.882;2023-08-17T13:49:36;30.85;;;11.40;;
26038;SDS011;13815;52.374;4.882;2023-08-17T13:52:01;43.55;;;12.43;;
26038;SDS011;13815;52.374;4.882;2023-08-17T13:54:27;19.30;;;9.93;;
26038;SDS011;13815;52.374;4.882;2023-08-17T13:56:53;18.05;;;9.98;;
26038;SDS011;13815;52.374;4.882;2023-08-17T13:59:18;32.83;;;10.65;;
26038;SDS011;13815;52.374;4.882;2023-08-17T14:01:43;32.88;;;10.43;;
26038;SDS011;13815;52.374;4.882;2023-08-17T14:04:09;27.05;;;11.20;;
26038;SDS011;13815;52.374;4.882;2023-08-17T14:06:38;46.65;;;12.40;;
26038;SDS011;13815;52.374;4.882;2023-08-17T14:09:04;62.17;;;12.38;;
26038;SDS011;13815;52.374;4.882;2023-08-17T14:11:29;20.98;;;8.73;;
26038;SDS011;13815;52.374;4.882;2023-08-17T14:13:55;24.65;;;8.52;;
26038;SDS011;13815;52.374;4.882;2023-08-17T14:16:20;23.65;;;9.35;;
26038;SDS011;13815;52.374;4.882;2023-08-17T14:18:46;39.45;;;9.55;;
26038;SDS011;13815;52.374;4.882;2023-08-17T14:21:11;27.38;;;8.02;;
26038;SDS011;13815;52.374;4.882;2023-08-17T14:23:37;23.13;;;6.78;;
26038;SDS011;13815;52.374;4.882;2023-08-17T14:26:03;16.33;;;6.97;;
26038;SDS011;13815;52.374;4.882;2023-08-17T14:28:28;32.70;;;7.00;;
26038;SDS011;13815;52.374;4.882;2023-08-17T14:30:54;54.90;;;8.48;;
26038;SDS011;13815;52.374;4.882;2023-08-17T14:33:19;32.15;;;6.60;;
26038;SDS011;13815;52.374;4.882;2023-08-17T14:35:45;33.35;;;6.10;;
26038;SDS011;13815;52.374;4.882;2023-08-17T14:38:10;17.83;;;4.82;;
26038;SDS011;13815;52.374;4.882;2023-08-17T14:40:41;19.48;;;4.63;;
26038;SDS011;13815;52.374;4.882;2023-08-17T14:43:07;12.43;;;4.07;;
26038;SDS011;13815;52.374;4.882;2023-08-17T14:45:34;14.13;;;3.72;;
26038;SDS011;13815;52.374;4.882;2023-08-17T14:47:59;19.80;;;3.90;;
26038;SDS011;13815;52.374;4.882;2023-08-17T14:50:25;32.38;;;4.38;;
26038;SDS011;13815;52.374;4.882;2023-08-17T14:52:51;37.33;;;4.72;;